HMB weather

Sohag International Airport
Sohag, Sohag Governorate, Egypt

Public forecast

Using degrees Celsius for public forecast. Weather courtesy of forecast.io.

Closest aviation weather report (METAR) to Sohag International Airport

Closest report is Assiut International Airport, 57.6 nm (106.7 km) NW. Retrieved 2020/06/06 20:00 UTC (56 minutes ago):

HEAT 062000Z 36010KT CAVOK 30/12 Q1012 NOSIG

Closest aviation forecast (TAF) to Sohag International Airport

Closest forecast is Assiut International Airport, 57.6 nm (106.7 km) NW. Retrieved 2020/06/06 18:00 UTC (3 hours ago):

TAF HEAT 061700Z 0618/0724 35012KT CAVOK